createdAt,value
2019-02-06T00:01:47.391Z,75.22
2019-02-06T00:03:51.833Z,75.22
2019-02-06T00:05:59.342Z,75.34
2019-02-06T00:08:03.296Z,75.21
2019-02-06T00:10:07.303Z,75.13
2019-02-06T00:12:11.900Z,74.99
2019-02-06T00:14:16.221Z,75.03
2019-02-06T00:16:20.694Z,75.17
2019-02-06T00:18:24.773Z,75.14
2019-02-06T00:20:32.683Z,75.18
2019-02-06T00:22:37.488Z,75.18
2019-02-06T00:24:41.701Z,75.38
2019-02-06T00:26:47.378Z,75.50
2019-02-06T00:28:51.272Z,75.55
2019-02-06T00:30:55.320Z,75.59
2019-02-06T00:33:00.255Z,75.58
2019-02-06T00:35:04.555Z,75.58
2019-02-06T00:37:08.777Z,75.73
2019-02-06T00:39:12.476Z,75.64
2019-02-06T00:41:17.310Z,75.63
2019-02-06T00:43:21.655Z,75.72
2019-02-06T00:45:27.764Z,75.35
2019-02-06T00:47:31.628Z,75.33
2019-02-06T00:49:35.495Z,75.39
2019-02-06T00:51:39.963Z,75.34
2019-02-06T00:53:43.793Z,75.38
2019-02-06T00:55:48.599Z,75.21
2019-02-06T00:57:52.614Z,75.41
2019-02-06T00:59:58.595Z,75.28
2019-02-06T01:02:02.939Z,75.43
2019-02-06T01:04:08.911Z,75.38
2019-02-06T01:06:13.574Z,75.42
2019-02-06T01:08:17.686Z,75.21
2019-02-06T01:10:22.670Z,75.29
2019-02-06T01:12:27.207Z,75.16
2019-02-06T01:14:31.659Z,75.05
2019-02-06T01:16:36.723Z,75.06
2019-02-06T01:18:41.773Z,75.04
2019-02-06T01:20:46.715Z,74.87
2019-02-06T01:22:54.534Z,74.96
2019-02-06T01:24:58.396Z,74.91
2019-02-06T01:27:03.315Z,74.74
2019-02-06T01:29:07.473Z,74.98
2019-02-06T01:31:16.471Z,74.88
2019-02-06T01:33:20.455Z,74.98
2019-02-06T01:35:25.117Z,74.96
2019-02-06T01:37:29.231Z,74.99
2019-02-06T01:39:34.025Z,75.12
2019-02-06T01:41:38.189Z,74.98
2019-02-06T01:43:42.175Z,75.03
2019-02-06T01:45:46.323Z,75.11
2019-02-06T01:47:50.289Z,75.20
2019-02-06T01:49:54.764Z,75.16
2019-02-06T01:51:59.058Z,75.04
2019-02-06T01:54:02.956Z,74.99
2019-02-06T01:56:07.448Z,74.89
2019-02-06T01:58:11.332Z,74.80
2019-02-06T02:00:20.030Z,74.93
2019-02-06T02:02:26.428Z,74.77
2019-02-06T02:04:30.399Z,74.79
2019-02-06T02:06:34.948Z,74.77
2019-02-06T02:08:42.129Z,74.86
2019-02-06T02:10:45.865Z,74.83
2019-02-06T02:12:50.534Z,74.88
2019-02-06T02:14:54.592Z,74.80
2019-02-06T02:16:59.775Z,74.68
2019-02-06T02:19:03.861Z,74.50
2019-02-06T02:21:08.900Z,74.45
2019-02-06T02:23:13.239Z,74.40
2019-02-06T02:25:18.362Z,74.46
2019-02-06T02:27:23.000Z,74.71
2019-02-06T02:29:27.040Z,74.81
2019-02-06T02:31:31.993Z,74.81
2019-02-06T02:33:36.113Z,74.68
2019-02-06T02:35:41.648Z,74.70
2019-02-06T02:37:46.515Z,74.72
2019-02-06T02:39:51.349Z,74.71
2019-02-06T02:41:56.055Z,74.68
2019-02-06T02:44:00.028Z,74.66
2019-02-06T02:46:04.065Z,74.64
2019-02-06T02:48:08.263Z,74.68
2019-02-06T02:50:12.262Z,74.79
2019-02-06T02:52:18.249Z,74.73
2019-02-06T02:54:22.123Z,74.84
2019-02-06T02:56:27.477Z,74.84
2019-02-06T02:58:31.425Z,74.93
2019-02-06T03:00:58.275Z,74.78
2019-02-06T03:03:06.581Z,74.82
2019-02-06T03:05:14.970Z,74.88
2019-02-06T03:07:18.965Z,74.94
2019-02-06T03:09:24.862Z,75.01
2019-02-06T03:11:29.077Z,75.05
2019-02-06T03:13:33.339Z,75.16
2019-02-06T03:15:37.736Z,75.28
2019-02-06T03:17:41.867Z,75.23
2019-02-06T03:19:46.619Z,75.13
2019-02-06T03:21:51.213Z,75.00
2019-02-06T03:23:55.086Z,74.95
2019-02-06T03:25:59.402Z,74.85
2019-02-06T03:28:03.430Z,74.85
2019-02-06T03:30:09.493Z,74.88
2019-02-06T03:32:13.709Z,74.82
2019-02-06T03:34:18.914Z,74.86
2019-02-06T03:36:23.982Z,74.83
2019-02-06T03:38:27.969Z,74.76
2019-02-06T03:40:34.077Z,74.82
2019-02-06T03:42:37.914Z,74.99
2019-02-06T03:44:42.765Z,75.18
2019-02-06T03:46:46.625Z,75.28
2019-02-06T03:48:50.551Z,75.36
2019-02-06T03:50:56.631Z,75.37
2019-02-06T03:53:00.672Z,75.31
2019-02-06T03:55:07.056Z,75.24
2019-02-06T03:57:10.899Z,75.25
2019-02-06T03:59:14.793Z,75.38
2019-02-06T04:01:19.760Z,75.28
2019-02-06T04:03:26.754Z,75.28
2019-02-06T04:05:30.912Z,75.31
2019-02-06T04:07:34.759Z,75.36
2019-02-06T04:09:38.571Z,75.45
2019-02-06T04:11:43.303Z,75.46
2019-02-06T04:13:47.312Z,75.39
2019-02-06T04:15:52.162Z,75.56
2019-02-06T04:17:57.016Z,75.62
2019-02-06T04:20:01.543Z,75.56
2019-02-06T04:22:05.402Z,75.57
2019-02-06T04:24:09.300Z,75.58
2019-02-06T04:26:13.385Z,75.33
2019-02-06T04:28:17.318Z,75.18
2019-02-06T04:30:21.812Z,75.01
2019-02-06T04:32:25.583Z,74.74
2019-02-06T04:34:29.556Z,74.61
2019-02-06T04:36:33.837Z,74.58
2019-02-06T04:38:37.891Z,74.44
2019-02-06T04:40:46.404Z,74.48
2019-02-06T04:42:50.294Z,74.44
2019-02-06T04:44:54.069Z,74.47
2019-02-06T04:46:59.218Z,74.43
2019-02-06T04:49:03.191Z,74.49
2019-02-06T04:51:08.817Z,74.42
2019-02-06T04:53:12.739Z,74.37
2019-02-06T04:55:16.846Z,74.30
2019-02-06T04:57:21.534Z,74.31
2019-02-06T04:59:25.640Z,74.22
2019-02-06T05:01:29.759Z,74.06
2019-02-06T05:03:35.697Z,74.15
2019-02-06T05:05:40.318Z,74.25
2019-02-06T05:07:44.480Z,74.42
2019-02-06T05:09:48.422Z,74.51
2019-02-06T05:11:52.983Z,74.44
2019-02-06T05:13:56.982Z,74.52
2019-02-06T05:16:01.562Z,74.48
2019-02-06T05:18:08.069Z,74.46
2019-02-06T05:20:28.881Z,74.46
2019-02-06T05:22:33.846Z,74.53
2019-02-06T05:24:37.844Z,74.32
2019-02-06T05:26:42.570Z,74.22
2019-02-06T05:28:47.703Z,74.40
2019-02-06T05:30:52.021Z,74.50
2019-02-06T05:32:56.074Z,74.70
2019-02-06T05:35:02.945Z,74.88
2019-02-06T05:37:09.931Z,75.12
2019-02-06T05:39:13.828Z,75.13
2019-02-06T05:41:22.314Z,75.08
2019-02-06T05:43:26.651Z,74.93
2019-02-06T05:45:30.864Z,74.82
2019-02-06T05:47:35.402Z,74.78
2019-02-06T05:49:39.414Z,75.10
2019-02-06T05:51:46.157Z,75.16
2019-02-06T05:53:50.275Z,75.39
2019-02-06T05:55:54.439Z,74.99
2019-02-06T05:57:58.941Z,74.82
2019-02-06T06:00:03.932Z,74.63
2019-02-06T06:02:08.460Z,74.57
2019-02-06T06:04:12.675Z,74.63
2019-02-06T06:06:17.250Z,74.61
2019-02-06T06:08:21.118Z,74.71
2019-02-06T06:10:24.985Z,74.79
2019-02-06T06:12:29.661Z,74.68
2019-02-06T06:14:33.565Z,74.83
2019-02-06T06:16:38.493Z,74.82
2019-02-06T06:18:42.815Z,74.82
2019-02-06T06:20:46.543Z,74.68
2019-02-06T06:22:51.139Z,74.54
2019-02-06T06:24:55.097Z,74.61
2019-02-06T06:27:00.165Z,74.54
2019-02-06T06:29:04.058Z,74.44
2019-02-06T06:31:10.572Z,74.38
2019-02-06T06:33:15.692Z,74.38
2019-02-06T06:35:19.636Z,74.28
2019-02-06T06:37:23.700Z,74.14
2019-02-06T06:39:27.706Z,74.30
2019-02-06T06:41:31.603Z,74.20
2019-02-06T06:43:36.146Z,74.31
2019-02-06T06:45:40.225Z,74.24
2019-02-06T06:47:45.076Z,74.22
2019-02-06T06:49:48.933Z,74.13
2019-02-06T06:51:55.953Z,73.99
2019-02-06T06:53:59.922Z,74.00
2019-02-06T06:56:03.941Z,74.14
2019-02-06T06:58:08.943Z,73.98
2019-02-06T07:00:22.038Z,73.90
2019-02-06T07:02:26.633Z,73.89
2019-02-06T07:04:30.496Z,73.99
2019-02-06T07:06:36.705Z,73.96
2019-02-06T07:08:40.692Z,73.85
2019-02-06T07:10:44.747Z,73.79
2019-02-06T07:12:48.857Z,73.75
2019-02-06T07:14:52.959Z,73.74
2019-02-06T07:16:59.667Z,73.58
2019-02-06T07:19:03.591Z,73.52
2019-02-06T07:21:07.476Z,73.56
2019-02-06T07:23:12.265Z,73.38
2019-02-06T07:25:17.240Z,73.24
2019-02-06T07:27:21.498Z,73.39
2019-02-06T07:29:25.495Z,73.45
2019-02-06T07:31:29.379Z,73.26
2019-02-06T07:33:34.253Z,73.25
2019-02-06T07:35:38.284Z,73.06
2019-02-06T07:37:43.030Z,73.17
2019-02-06T07:39:46.955Z,73.22
2019-02-06T07:41:50.787Z,73.37
2019-02-06T07:43:55.322Z,73.28
2019-02-06T07:45:59.310Z,73.31
2019-02-06T07:48:06.735Z,73.41
2019-02-06T07:50:16.298Z,73.51
2019-02-06T07:52:20.914Z,73.71
2019-02-06T07:54:25.981Z,73.83
2019-02-06T07:56:29.927Z,73.96
2019-02-06T07:58:34.489Z,74.02
2019-02-06T08:00:38.578Z,74.07
2019-02-06T08:02:44.407Z,74.13
2019-02-06T08:04:48.175Z,74.09
2019-02-06T08:06:52.114Z,74.11
2019-02-06T08:08:56.996Z,73.99
2019-02-06T08:11:03.101Z,74.17
2019-02-06T08:13:08.686Z,74.18
2019-02-06T08:15:13.830Z,74.26
2019-02-06T08:17:17.721Z,74.14
2019-02-06T08:19:22.473Z,74.22
2019-02-06T08:21:26.466Z,74.11
2019-02-06T08:23:31.342Z,74.22
2019-02-06T08:25:35.222Z,74.18
2019-02-06T08:27:41.231Z,74.08
2019-02-06T08:29:45.899Z,74.06
2019-02-06T08:31:49.613Z,73.91
2019-02-06T08:33:54.581Z,73.90
2019-02-06T08:35:58.523Z,73.77
2019-02-06T08:38:02.868Z,73.71
2019-02-06T08:40:07.489Z,73.57
2019-02-06T08:42:11.440Z,73.54
2019-02-06T08:44:16.643Z,73.79
2019-02-06T08:46:20.592Z,73.78
2019-02-06T08:48:25.494Z,73.53
2019-02-06T08:50:29.385Z,73.32
2019-02-06T08:52:33.591Z,73.20
2019-02-06T08:54:38.504Z,73.16
2019-02-06T08:56:42.352Z,72.88
2019-02-06T08:58:46.304Z,72.76
2019-02-06T09:00:50.257Z,72.89
2019-02-06T09:02:54.140Z,72.61
2019-02-06T09:04:58.940Z,72.45
2019-02-06T09:07:02.817Z,72.38
2019-02-06T09:09:56.904Z,72.63
2019-02-06T09:12:01.250Z,72.68
2019-02-06T09:14:07.816Z,72.09
2019-02-06T09:16:11.943Z,72.06
2019-02-06T09:18:16.598Z,71.92
2019-02-06T09:20:22.533Z,71.92
2019-02-06T09:22:26.540Z,71.98
2019-02-06T09:24:31.877Z,71.77
2019-02-06T09:26:36.309Z,71.80
2019-02-06T09:28:40.755Z,71.94
2019-02-06T09:30:45.005Z,71.91
2019-02-06T09:32:50.027Z,71.78
2019-02-06T09:34:54.241Z,71.61
2019-02-06T09:37:00.111Z,71.49
2019-02-06T09:39:11.744Z,71.46
2019-02-06T09:41:12.331Z,71.26
2019-02-06T09:43:16.348Z,70.96
2019-02-06T09:45:21.159Z,70.86
2019-02-06T09:47:25.105Z,70.88
2019-02-06T09:49:29.387Z,70.91
2019-02-06T09:51:33.288Z,71.06
2019-02-06T09:53:37.896Z,70.47
2019-02-06T09:55:42.094Z,70.60
2019-02-06T09:57:45.894Z,70.53
2019-02-06T09:59:50.115Z,70.60
2019-02-06T10:01:54.181Z,70.57
2019-02-06T10:03:58.882Z,70.57
2019-02-06T10:06:03.221Z,70.65
2019-02-06T10:08:07.191Z,70.77
2019-02-06T10:10:15.706Z,70.54
2019-02-06T10:12:20.251Z,70.41
2019-02-06T10:14:24.629Z,70.30
2019-02-06T10:16:29.663Z,70.31
2019-02-06T10:18:33.597Z,70.02
2019-02-06T10:20:49.227Z,69.90
2019-02-06T10:22:54.573Z,69.28
2019-02-06T10:24:58.363Z,69.06
2019-02-06T10:27:02.389Z,68.67
2019-02-06T10:29:06.876Z,68.69
2019-02-06T10:31:11.603Z,68.47
2019-02-06T10:33:18.444Z,68.48
2019-02-06T10:35:21.403Z,68.29
2019-02-06T10:37:29.236Z,67.89
2019-02-06T10:39:39.132Z,67.34
2019-02-06T10:41:43.341Z,66.83
2019-02-06T10:43:47.745Z,66.63
2019-02-06T10:45:52.295Z,66.21
2019-02-06T10:47:56.287Z,66.68
2019-02-06T10:50:02.030Z,66.92
2019-02-06T10:52:06.154Z,66.72
2019-02-06T10:54:10.095Z,66.42
2019-02-06T10:56:15.066Z,66.08
2019-02-06T10:58:20.007Z,65.20
2019-02-06T11:00:29.795Z,65.12
2019-02-06T11:02:34.625Z,63.13
2019-02-06T11:04:39.089Z,61.59
2019-02-06T11:06:45.895Z,60.81
2019-02-06T11:08:49.771Z,60.84
2019-02-06T11:10:54.649Z,60.68
2019-02-06T11:12:58.636Z,60.22
2019-02-06T11:15:02.959Z,60.40
2019-02-06T11:17:07.039Z,59.84
2019-02-06T11:19:12.907Z,59.22
2019-02-06T11:21:20.255Z,59.29
2019-02-06T11:23:24.306Z,58.87
2019-02-06T11:25:29.199Z,59.15
2019-02-06T11:27:33.659Z,57.91
2019-02-06T11:29:38.028Z,55.86
2019-02-06T11:31:41.998Z,54.64
2019-02-06T11:33:46.034Z,54.61
2019-02-06T11:35:50.346Z,54.30
2019-02-06T11:37:54.487Z,53.54
2019-02-06T11:39:59.383Z,52.77
2019-02-06T11:42:04.003Z,52.26
2019-02-06T11:44:08.486Z,51.94
2019-02-06T11:46:12.721Z,51.57
2019-02-06T11:48:16.697Z,51.91
2019-02-06T11:50:24.269Z,50.99
2019-02-06T11:52:28.296Z,49.90
2019-02-06T11:54:33.289Z,47.48
2019-02-06T11:56:37.312Z,46.59
2019-02-06T11:58:41.744Z,46.14
2019-02-06T12:01:14.378Z,46.47
2019-02-06T12:03:18.250Z,45.49
2019-02-06T12:05:22.820Z,45.23
2019-02-06T12:07:26.745Z,45.31
2019-02-06T12:09:32.669Z,45.17
2019-02-06T12:11:39.104Z,44.54
2019-02-06T12:13:43.051Z,43.05
2019-02-06T12:15:48.293Z,41.76
2019-02-06T12:17:52.348Z,41.91
2019-02-06T12:20:00.049Z,42.56
2019-02-06T12:22:06.828Z,42.81
2019-02-06T12:24:12.815Z,43.62
2019-02-06T12:26:16.730Z,44.56
2019-02-06T12:28:20.690Z,45.60
2019-02-06T12:30:34.167Z,45.22
2019-02-06T12:32:39.249Z,44.01
2019-02-06T12:34:48.217Z,44.30
2019-02-06T12:36:52.442Z,44.40
2019-02-06T12:38:56.524Z,44.08
2019-02-06T12:41:01.321Z,42.33
2019-02-06T12:43:06.200Z,41.06
2019-02-06T12:45:11.775Z,40.59
2019-02-06T12:47:15.775Z,39.97
2019-02-06T12:49:19.775Z,41.16
2019-02-06T12:51:24.359Z,41.61
2019-02-06T12:53:28.424Z,42.01
2019-02-06T12:55:35.724Z,43.14
2019-02-06T12:57:39.841Z,43.00
2019-02-06T12:59:44.471Z,43.57
2019-02-06T13:01:51.533Z,44.44
2019-02-06T13:03:58.183Z,45.13
2019-02-06T13:06:03.063Z,44.94
2019-02-06T13:08:07.948Z,45.08
2019-02-06T13:10:12.663Z,44.88
2019-02-06T13:12:20.989Z,45.77
2019-02-06T13:14:25.562Z,47.07
2019-02-06T13:16:30.379Z,48.70
2019-02-06T13:18:35.044Z,49.84
2019-02-06T13:20:40.732Z,50.85
2019-02-06T13:22:44.630Z,51.35
2019-02-06T13:24:48.850Z,51.82
2019-02-06T13:26:52.961Z,52.32
2019-02-06T13:28:57.396Z,53.06
2019-02-06T13:31:01.730Z,53.49
2019-02-06T13:33:06.478Z,53.67
2019-02-06T13:35:11.387Z,54.03
2019-02-06T13:37:16.824Z,54.29
2019-02-06T13:39:21.074Z,54.43
2019-02-06T13:41:25.628Z,54.57
2019-02-06T13:43:29.720Z,54.79
2019-02-06T13:45:36.278Z,55.11
2019-02-06T13:47:40.172Z,55.22
2019-02-06T13:49:46.957Z,55.39
2019-02-06T13:51:52.025Z,55.37
2019-02-06T13:53:56.545Z,55.78
2019-02-06T13:56:01.423Z,55.62
2019-02-06T13:58:05.540Z,55.77
2019-02-06T14:00:17.357Z,55.81
2019-02-06T14:02:21.486Z,55.91
2019-02-06T14:04:25.461Z,56.05
2019-02-06T14:06:29.723Z,55.95
2019-02-06T14:08:33.756Z,56.11
2019-02-06T14:10:40.437Z,56.38
2019-02-06T14:12:44.273Z,56.59
2019-02-06T14:14:48.221Z,56.84
2019-02-06T14:16:53.070Z,56.98
2019-02-06T14:18:57.028Z,56.81
2019-02-06T14:21:01.869Z,57.06
2019-02-06T14:23:09.245Z,57.03
2019-02-06T14:25:44.745Z,57.14
2019-02-06T14:28:16.525Z,57.20
2019-02-06T14:30:30.358Z,57.15
2019-02-06T14:33:16.133Z,57.09
2019-02-06T14:36:10.774Z,57.26
2019-02-06T14:39:04.035Z,57.20
2019-02-06T14:41:35.516Z,57.09
2019-02-06T14:44:13.244Z,57.25
2019-02-06T14:46:57.056Z,57.56
2019-02-06T14:49:38.301Z,57.64
2019-02-06T14:52:15.222Z,57.58
2019-02-06T14:54:41.447Z,57.50
2019-02-06T14:57:07.149Z,57.48
2019-02-06T15:00:04.303Z,57.49
2019-02-06T15:02:41.651Z,57.63
2019-02-06T15:05:25.931Z,57.75
2019-02-06T15:08:20.137Z,57.62
2019-02-06T15:10:39.160Z,57.89
2019-02-06T15:13:37.158Z,57.85
2019-02-06T15:16:10.593Z,57.95
2019-02-06T15:19:10.067Z,58.03
2019-02-06T15:21:46.463Z,58.17
2019-02-06T15:24:36.774Z,58.36
2019-02-06T15:27:15.516Z,58.71
2019-02-06T15:29:59.431Z,58.77
2019-02-06T15:32:30.867Z,58.74
2019-02-06T15:35:04.032Z,58.96
2019-02-06T15:37:33.603Z,59.30
2019-02-06T15:40:28.125Z,59.47
2019-02-06T15:43:20.308Z,59.70
2019-02-06T15:45:36.741Z,60.00
2019-02-06T15:47:56.893Z,60.30
2019-02-06T15:50:43.343Z,60.45
2019-02-06T15:53:35.236Z,60.73
2019-02-06T15:56:20.542Z,61.01
2019-02-06T15:59:12.272Z,61.25
2019-02-06T16:01:38.291Z,61.44
2019-02-06T16:04:47.382Z,61.84
2019-02-06T16:07:36.987Z,62.02
2019-02-06T16:10:05.962Z,62.02
2019-02-06T16:12:29.570Z,62.35
2019-02-06T16:15:23.838Z,62.69
2019-02-06T16:18:03.615Z,62.91
2019-02-06T16:20:51.012Z,62.92
2019-02-06T16:23:37.527Z,63.16
2019-02-06T16:26:13.171Z,63.32
2019-02-06T16:29:10.289Z,63.47
2019-02-06T16:31:37.711Z,63.69
2019-02-06T16:34:20.249Z,63.87
2019-02-06T16:36:56.165Z,63.91
2019-02-06T16:39:20.800Z,64.07
2019-02-06T16:42:00.256Z,64.40
2019-02-06T16:44:39.095Z,64.38
2019-02-06T16:47:20.796Z,64.41
2019-02-06T16:49:55.010Z,64.52
2019-02-06T16:52:15.170Z,64.81
2019-02-06T16:55:03.459Z,64.87
2019-02-06T16:58:06.036Z,65.13
2019-02-06T17:00:59.308Z,65.36
2019-02-06T17:04:08.570Z,65.51
2019-02-06T17:06:26.408Z,65.80
2019-02-06T17:09:07.351Z,65.87
2019-02-06T17:12:04.375Z,66.10
2019-02-06T17:14:39.922Z,66.26
2019-02-06T17:17:29.811Z,66.63
2019-02-06T17:19:56.808Z,66.84
2019-02-06T17:22:44.600Z,67.23
2019-02-06T17:25:27.490Z,67.08
2019-02-06T17:28:25.540Z,67.40
2019-02-06T17:31:25.219Z,67.60
2019-02-06T17:34:05.378Z,67.71
2019-02-06T17:36:43.905Z,68.21
2019-02-06T17:39:24.329Z,68.54
2019-02-06T17:42:15.902Z,68.86
2019-02-06T17:44:54.614Z,69.10
2019-02-06T17:47:48.879Z,69.50
2019-02-06T17:50:34.500Z,69.62
2019-02-06T17:53:05.829Z,69.93
2019-02-06T17:55:21.517Z,70.08
2019-02-06T17:57:25.521Z,70.33
2019-02-06T17:59:30.004Z,70.33
2019-02-06T18:01:45.269Z,70.43
2019-02-06T18:03:53.886Z,70.63
2019-02-06T18:05:59.882Z,70.65
2019-02-06T18:08:04.640Z,70.83
2019-02-06T18:10:14.788Z,70.81
2019-02-06T18:12:26.275Z,71.02
2019-02-06T18:14:26.851Z,70.93
2019-02-06T18:16:32.206Z,71.30
2019-02-06T18:18:36.712Z,71.19
2019-02-06T18:20:41.819Z,71.33
2019-02-06T18:22:46.031Z,71.52
2019-02-06T18:24:51.300Z,71.55
2019-02-06T18:26:55.461Z,71.74
2019-02-06T18:28:59.933Z,71.63
2019-02-06T18:31:05.983Z,71.90
2019-02-06T18:33:10.688Z,71.97
2019-02-06T18:35:15.628Z,71.91
2019-02-06T18:37:20.111Z,72.06
2019-02-06T18:39:24.479Z,72.03
2019-02-06T18:41:28.853Z,72.00
2019-02-06T18:43:33.317Z,72.07
2019-02-06T18:45:38.594Z,71.95
2019-02-06T18:47:43.849Z,72.03
2019-02-06T18:49:48.199Z,71.94
2019-02-06T18:51:52.913Z,71.74
2019-02-06T18:53:58.185Z,71.78
2019-02-06T18:56:04.175Z,71.77
2019-02-06T18:58:08.749Z,71.80
2019-02-06T19:00:17.293Z,71.83
2019-02-06T19:02:22.539Z,71.70
2019-02-06T19:04:28.176Z,71.72
2019-02-06T19:06:33.865Z,71.71
2019-02-06T19:08:40.096Z,71.80
2019-02-06T19:10:45.704Z,71.77
2019-02-06T19:12:50.793Z,71.76
2019-02-06T19:14:55.156Z,71.84
2019-02-06T19:17:00.706Z,72.05
2019-02-06T19:19:06.267Z,72.00
2019-02-06T19:21:11.989Z,72.07
2019-02-06T19:23:16.374Z,72.08
2019-02-06T19:25:23.910Z,71.96
2019-02-06T19:27:27.947Z,72.00
2019-02-06T19:29:33.525Z,71.97
2019-02-06T19:31:38.799Z,71.98
2019-02-06T19:33:43.565Z,71.94
2019-02-06T19:35:49.190Z,71.99
2019-02-06T19:37:53.954Z,71.90
2019-02-06T19:39:58.864Z,72.04
2019-02-06T19:42:05.000Z,71.96
2019-02-06T19:44:11.260Z,72.02
2019-02-06T19:46:16.772Z,72.14
2019-02-06T19:48:22.465Z,72.13
2019-02-06T19:50:33.107Z,72.23
2019-02-06T19:52:37.846Z,72.32
2019-02-06T19:54:46.177Z,72.24
2019-02-06T19:56:52.185Z,72.38
2019-02-06T19:58:59.087Z,72.42
2019-02-06T20:01:04.985Z,72.40
2019-02-06T20:03:11.254Z,72.50
2019-02-06T20:05:16.174Z,72.44
2019-02-06T20:07:22.598Z,72.58
2019-02-06T20:09:30.432Z,72.60
2019-02-06T20:11:38.807Z,72.63
2019-02-06T20:13:44.198Z,72.61
2019-02-06T20:15:48.994Z,72.65
2019-02-06T20:17:53.075Z,72.64
2019-02-06T20:19:57.335Z,72.79
2019-02-06T20:22:01.691Z,72.84
2019-02-06T20:24:06.335Z,72.70
2019-02-06T20:26:11.318Z,72.62
2019-02-06T20:28:18.705Z,72.65
2019-02-06T20:30:24.961Z,72.55
2019-02-06T20:32:30.107Z,72.50
2019-02-06T20:34:34.281Z,72.44
2019-02-06T20:36:39.237Z,72.54
2019-02-06T20:38:43.680Z,72.48
2019-02-06T20:40:47.879Z,72.46
2019-02-06T20:42:53.127Z,72.44
2019-02-06T20:44:57.395Z,72.45
2019-02-06T20:47:02.127Z,72.47
2019-02-06T20:49:08.293Z,72.58
2019-02-06T20:51:12.488Z,72.68
2019-02-06T20:53:16.895Z,72.65
2019-02-06T20:55:21.223Z,72.71
2019-02-06T20:57:25.480Z,72.80
2019-02-06T20:59:29.565Z,72.69
2019-02-06T21:01:33.805Z,72.70
2019-02-06T21:03:39.016Z,72.45
2019-02-06T21:05:43.315Z,72.44
2019-02-06T21:07:47.399Z,72.37
2019-02-06T21:09:51.554Z,72.22
2019-02-06T21:11:56.022Z,72.10
2019-02-06T21:14:00.117Z,72.07
2019-02-06T21:16:04.210Z,71.89
2019-02-06T21:18:08.487Z,71.80
2019-02-06T21:20:14.520Z,71.68
2019-02-06T21:22:18.650Z,71.54
2019-02-06T21:24:23.113Z,71.42
2019-02-06T21:26:27.042Z,71.29
2019-02-06T21:28:31.690Z,71.18
2019-02-06T21:30:36.232Z,71.08
2019-02-06T21:32:41.296Z,70.94
2019-02-06T21:34:45.325Z,70.85
2019-02-06T21:36:49.336Z,70.78
2019-02-06T21:38:53.542Z,70.65
2019-02-06T21:40:57.830Z,70.56
2019-02-06T21:43:02.047Z,70.47
2019-02-06T21:45:06.810Z,70.49
2019-02-06T21:47:11.371Z,70.54
2019-02-06T21:49:16.527Z,70.50
2019-02-06T21:51:20.857Z,70.48
2019-02-06T21:53:24.952Z,70.55
2019-02-06T21:55:28.992Z,70.55
2019-02-06T21:57:33.051Z,70.47
2019-02-06T21:59:39.662Z,70.51
2019-02-06T22:01:43.973Z,70.47
2019-02-06T22:03:48.186Z,70.56
2019-02-06T22:05:53.262Z,70.61
2019-02-06T22:07:57.470Z,70.67
2019-02-06T22:10:01.556Z,70.73
2019-02-06T22:12:06.664Z,70.63
2019-02-06T22:14:10.828Z,70.73
2019-02-06T22:16:14.679Z,70.86
2019-02-06T22:18:20.733Z,70.94
2019-02-06T22:20:24.895Z,70.95
2019-02-06T22:22:29.011Z,70.87
2019-02-06T22:24:35.554Z,71.05
2019-02-06T22:26:39.570Z,70.97
2019-02-06T22:28:46.648Z,71.17
2019-02-06T22:30:50.849Z,71.24
2019-02-06T22:32:55.070Z,71.26
2019-02-06T22:34:59.326Z,71.49
2019-02-06T22:37:03.243Z,71.59
2019-02-06T22:39:11.579Z,71.69
2019-02-06T22:41:15.556Z,71.70
2019-02-06T22:43:19.643Z,71.77
2019-02-06T22:45:27.560Z,71.89
2019-02-06T22:47:31.563Z,71.89
2019-02-06T22:49:35.554Z,71.76
2019-02-06T22:51:40.506Z,71.65
2019-02-06T22:53:45.710Z,71.51
2019-02-06T22:55:50.024Z,71.49
2019-02-06T22:57:54.286Z,71.33
2019-02-06T22:59:58.570Z,71.43
2019-02-06T23:02:02.657Z,71.45
2019-02-06T23:04:07.667Z,71.42
2019-02-06T23:06:12.094Z,71.33
2019-02-06T23:08:16.681Z,71.23
2019-02-06T23:10:20.658Z,71.14
2019-02-06T23:12:27.424Z,71.10
2019-02-06T23:14:31.622Z,71.00
2019-02-06T23:16:36.646Z,70.81
2019-02-06T23:18:41.356Z,70.68
2019-02-06T23:20:45.553Z,70.54
2019-02-06T23:22:50.034Z,70.58
2019-02-06T23:24:54.364Z,70.53
2019-02-06T23:26:58.389Z,70.55
2019-02-06T23:29:03.592Z,70.64
2019-02-06T23:31:07.982Z,70.64
2019-02-06T23:33:12.019Z,70.67
2019-02-06T23:35:16.227Z,70.65
2019-02-06T23:37:20.138Z,70.65
2019-02-06T23:39:42.591Z,70.60
2019-02-06T23:42:03.763Z,70.63
2019-02-06T23:44:07.763Z,70.67
2019-02-06T23:46:12.032Z,70.80
2019-02-06T23:48:16.195Z,70.92
2019-02-06T23:50:20.096Z,71.13
2019-02-06T23:52:31.621Z,71.26
2019-02-06T23:54:35.794Z,71.24
2019-02-06T23:56:47.277Z,71.32
2019-02-06T23:58:51.506Z,71.35
